BWC weather

Brawley Municipal Airport
Brawley, California, United States

Public forecast

Using degrees Fahrenheit for public forecast. Weather courtesy of forecast.io.

METAR (pilot weather report)

Closest report is Imperial County Airport, 10.0 nm (18.6 km) SSW. Retrieved 2019/06/19 20:53 UTC (8 minutes ago):

KIPL 192053Z AUTO 11007KT 080V150 10SM CLR 38/11 A2979 RMK AO2 SLP088 T03780106 58018 $

TAF (pilot weather forecast)

Closest forecast is Imperial County Airport, 10.0 nm (18.6 km) SSW. Retrieved 2019/06/19 18:24 UTC (3 hours ago):

TAF KIPL 191723Z 1918/2018 14008KT P6SM SKC FM200200 22010KT P6SM SKC FM200800 15008KT P6SM SKC